createdAt,value
2018-05-06T00:00:00.173Z,15.03
2018-05-06T00:00:59.324Z,14.99
2018-05-06T00:01:59.341Z,14.95
2018-05-06T00:02:59.310Z,14.95
2018-05-06T00:03:59.308Z,14.92
2018-05-06T00:04:59.333Z,14.94
2018-05-06T00:05:59.278Z,14.89
2018-05-06T00:06:59.288Z,14.86
2018-05-06T00:07:59.317Z,14.86
2018-05-06T00:08:59.550Z,14.88
2018-05-06T00:09:59.312Z,14.80
2018-05-06T00:10:59.343Z,14.81
2018-05-06T00:11:59.315Z,14.80
2018-05-06T00:12:59.330Z,14.89
2018-05-06T00:13:59.311Z,14.88
2018-05-06T00:14:59.327Z,14.86
2018-05-06T00:15:59.313Z,14.88
2018-05-06T00:16:59.320Z,14.83
2018-05-06T00:17:59.351Z,14.81
2018-05-06T00:18:59.326Z,14.86
2018-05-06T00:19:59.338Z,14.84
2018-05-06T00:20:59.383Z,14.78
2018-05-06T00:21:59.368Z,14.78
2018-05-06T00:22:59.331Z,14.78
2018-05-06T00:23:59.374Z,14.70
2018-05-06T00:24:59.355Z,14.70
2018-05-06T00:25:59.378Z,14.72
2018-05-06T00:26:59.341Z,14.72
2018-05-06T00:27:59.389Z,14.64
2018-05-06T00:28:59.390Z,14.73
2018-05-06T00:29:59.364Z,14.68
2018-05-06T00:30:59.440Z,14.69
2018-05-06T00:31:59.397Z,14.60
2018-05-06T00:32:59.372Z,14.51
2018-05-06T00:34:00.175Z,14.50
2018-05-06T00:34:59.388Z,14.40
2018-05-06T00:35:59.852Z,14.39
2018-05-06T00:36:59.458Z,14.39
2018-05-06T00:37:59.412Z,14.36
2018-05-06T00:38:59.406Z,14.40
2018-05-06T00:40:00.178Z,14.25
2018-05-06T00:40:59.392Z,14.35
2018-05-06T00:41:59.428Z,14.35
2018-05-06T00:42:59.417Z,14.18
2018-05-06T00:43:59.483Z,14.24
2018-05-06T00:44:59.423Z,14.18
2018-05-06T00:45:59.404Z,14.20
2018-05-06T00:47:00.182Z,14.15
2018-05-06T00:47:59.416Z,14.02
2018-05-06T00:48:59.559Z,14.12
2018-05-06T00:49:59.431Z,14.10
2018-05-06T00:50:59.464Z,14.15
2018-05-06T00:51:59.431Z,14.12
2018-05-06T00:52:59.420Z,14.22
2018-05-06T00:53:59.457Z,14.20
2018-05-06T00:54:59.456Z,14.20
2018-05-06T00:55:59.453Z,14.18
2018-05-06T00:56:59.425Z,14.22
2018-05-06T00:57:59.421Z,14.15
2018-05-06T00:58:59.433Z,14.21
2018-05-06T00:59:59.463Z,14.24
2018-05-06T01:00:59.454Z,14.17
2018-05-06T01:01:59.494Z,14.15
2018-05-06T01:02:59.466Z,14.14
2018-05-06T01:03:59.464Z,14.12
2018-05-06T01:04:59.475Z,14.18
2018-05-06T01:05:59.447Z,14.18
2018-05-06T01:06:59.471Z,14.02
2018-05-06T01:07:59.460Z,14.03
2018-05-06T01:08:59.461Z,14.06
2018-05-06T01:09:59.476Z,14.07
2018-05-06T01:10:59.481Z,14.02
2018-05-06T01:11:59.520Z,14.07
2018-05-06T01:12:59.454Z,14.03
2018-05-06T01:13:59.485Z,14.03
2018-05-06T01:14:59.491Z,14.03
2018-05-06T01:15:59.498Z,14.02
2018-05-06T01:16:59.533Z,13.95
2018-05-06T01:17:59.486Z,13.92
2018-05-06T01:18:59.481Z,14.02
2018-05-06T01:19:59.509Z,13.89
2018-05-06T01:20:59.489Z,13.96
2018-05-06T01:21:59.472Z,13.92
2018-05-06T01:22:59.496Z,13.97
2018-05-06T01:23:59.465Z,13.95
2018-05-06T01:24:59.536Z,13.84
2018-05-06T01:25:59.483Z,13.87
2018-05-06T01:27:00.190Z,13.88
2018-05-06T01:28:00.196Z,13.87
2018-05-06T01:28:59.542Z,13.82
2018-05-06T01:29:59.906Z,13.82
2018-05-06T01:30:59.625Z,13.81
2018-05-06T01:32:01.037Z,13.88
2018-05-06T01:33:01.414Z,13.88
2018-05-06T01:34:03.101Z,13.89
2018-05-06T01:34:59.609Z,13.78
2018-05-06T01:35:59.596Z,13.85
2018-05-06T01:36:59.595Z,13.89
2018-05-06T01:37:59.977Z,13.89
2018-05-06T01:38:59.514Z,13.78
2018-05-06T01:39:59.515Z,13.81
2018-05-06T01:41:00.205Z,13.84
2018-05-06T01:41:59.557Z,13.82
2018-05-06T01:42:59.543Z,13.84
2018-05-06T01:43:59.569Z,13.81
2018-05-06T01:44:59.570Z,13.73
2018-05-06T01:45:59.573Z,13.82
2018-05-06T01:46:59.562Z,13.63
2018-05-06T01:47:59.538Z,13.78
2018-05-06T01:48:59.576Z,13.70
2018-05-06T01:49:59.577Z,13.79
2018-05-06T01:50:59.545Z,13.62
2018-05-06T01:51:59.596Z,13.63
2018-05-06T01:52:59.596Z,13.66
2018-05-06T01:53:59.557Z,13.63
2018-05-06T01:54:59.547Z,13.62
2018-05-06T01:55:59.585Z,13.69
2018-05-06T01:56:59.548Z,13.62
2018-05-06T01:57:59.573Z,13.66
2018-05-06T01:58:59.609Z,13.63
2018-05-06T01:59:59.601Z,13.54
2018-05-06T02:00:59.601Z,13.54
2018-05-06T02:01:59.614Z,13.59
2018-05-06T02:02:59.564Z,13.57
2018-05-06T02:03:59.603Z,13.59
2018-05-06T02:04:59.578Z,13.57
2018-05-06T02:05:59.599Z,13.63
2018-05-06T02:06:59.573Z,13.63
2018-05-06T02:07:59.563Z,13.49
2018-05-06T02:08:59.619Z,13.51
2018-05-06T02:09:59.632Z,13.52
2018-05-06T02:10:59.610Z,13.38
2018-05-06T02:11:59.672Z,13.44
2018-05-06T02:12:59.582Z,13.38
2018-05-06T02:13:59.602Z,13.41
2018-05-06T02:14:59.579Z,13.45
2018-05-06T02:15:59.660Z,13.49
2018-05-06T02:16:59.583Z,13.38
2018-05-06T02:17:59.617Z,13.45
2018-05-06T02:18:59.600Z,13.38
2018-05-06T02:19:59.626Z,13.41
2018-05-06T02:20:59.636Z,13.38
2018-05-06T02:21:59.626Z,13.29
2018-05-06T02:22:59.613Z,13.32
2018-05-06T02:23:59.624Z,13.23
2018-05-06T02:24:59.670Z,13.20
2018-05-06T02:25:59.658Z,13.15
2018-05-06T02:26:59.623Z,13.04
2018-05-06T02:27:59.617Z,13.05
2018-05-06T02:28:59.617Z,13.10
2018-05-06T02:29:59.652Z,13.03
2018-05-06T02:30:59.672Z,13.00
2018-05-06T02:31:59.664Z,13.12
2018-05-06T02:32:59.618Z,13.08
2018-05-06T02:33:59.679Z,13.01
2018-05-06T02:34:59.706Z,13.05
2018-05-06T02:35:59.706Z,13.05
2018-05-06T02:36:59.684Z,13.07
2018-05-06T02:37:59.855Z,13.04
2018-05-06T02:38:59.645Z,12.96
2018-05-06T02:39:59.652Z,13.01
2018-05-06T02:40:59.638Z,12.92
2018-05-06T02:41:59.703Z,12.97
2018-05-06T02:42:59.683Z,12.90
2018-05-06T02:43:59.665Z,12.87
2018-05-06T02:44:59.648Z,12.89
2018-05-06T02:45:59.694Z,12.89
2018-05-06T02:46:59.652Z,12.87
2018-05-06T02:47:59.895Z,12.77
2018-05-06T02:48:59.685Z,12.75
2018-05-06T02:49:59.694Z,12.82
2018-05-06T02:50:59.754Z,12.82
2018-05-06T02:51:59.715Z,12.78
2018-05-06T02:52:59.684Z,12.72
2018-05-06T02:53:59.717Z,12.68
2018-05-06T02:54:59.700Z,12.74
2018-05-06T02:55:59.686Z,12.67
2018-05-06T02:56:59.697Z,12.54
2018-05-06T02:57:59.694Z,12.52
2018-05-06T02:58:59.703Z,12.54
2018-05-06T02:59:59.706Z,12.52
2018-05-06T03:00:59.703Z,12.49
2018-05-06T03:01:59.699Z,12.39
2018-05-06T03:02:59.735Z,12.46
2018-05-06T03:03:59.740Z,12.39
2018-05-06T03:04:59.713Z,12.38
2018-05-06T03:05:59.729Z,12.42
2018-05-06T03:06:59.728Z,12.42
2018-05-06T03:07:59.703Z,12.52
2018-05-06T03:08:59.708Z,12.52
2018-05-06T03:09:59.740Z,12.53
2018-05-06T03:10:59.706Z,12.50
2018-05-06T03:11:59.892Z,12.53
2018-05-06T03:12:59.712Z,12.53
2018-05-06T03:13:59.767Z,12.57
2018-05-06T03:14:59.737Z,12.65
2018-05-06T03:15:59.814Z,12.70
2018-05-06T03:16:59.745Z,12.65
2018-05-06T03:17:59.738Z,12.71
2018-05-06T03:18:59.740Z,12.74
2018-05-06T03:19:59.736Z,12.70
2018-05-06T03:20:59.777Z,12.77
2018-05-06T03:21:59.745Z,12.75
2018-05-06T03:22:59.738Z,12.78
2018-05-06T03:23:59.741Z,12.75
2018-05-06T03:24:59.757Z,12.74
2018-05-06T03:25:59.767Z,12.74
2018-05-06T03:26:59.783Z,12.70
2018-05-06T03:27:59.773Z,12.72
2018-05-06T03:28:59.774Z,12.71
2018-05-06T03:29:59.758Z,12.77
2018-05-06T03:30:59.818Z,12.65
2018-05-06T03:31:59.841Z,12.68
2018-05-06T03:32:59.764Z,12.68
2018-05-06T03:33:59.809Z,12.75
2018-05-06T03:34:59.745Z,12.79
2018-05-06T03:35:59.821Z,12.85
2018-05-06T03:36:59.811Z,12.85
2018-05-06T03:37:59.800Z,12.74
2018-05-06T03:39:00.224Z,12.78
2018-05-06T03:39:59.779Z,12.74
2018-05-06T03:40:59.796Z,12.71
2018-05-06T03:41:59.760Z,12.79
2018-05-06T03:42:59.809Z,12.71
2018-05-06T03:43:59.792Z,12.77
2018-05-06T03:44:59.758Z,12.72
2018-05-06T03:45:59.813Z,12.77
2018-05-06T03:46:59.805Z,12.70
2018-05-06T03:47:59.761Z,12.72
2018-05-06T03:48:59.812Z,12.68
2018-05-06T03:49:59.835Z,12.71
2018-05-06T03:50:59.768Z,12.72
2018-05-06T03:51:59.787Z,12.85
2018-05-06T03:52:59.809Z,12.77
2018-05-06T03:53:59.812Z,12.77
2018-05-06T03:54:59.851Z,12.70
2018-05-06T03:55:59.806Z,12.77
2018-05-06T03:56:59.806Z,12.71
2018-05-06T03:57:59.821Z,12.77
2018-05-06T03:58:59.810Z,12.75
2018-05-06T03:59:59.819Z,12.67
2018-05-06T04:00:59.821Z,12.68
2018-05-06T04:01:59.810Z,12.68
2018-05-06T04:02:59.831Z,12.65
2018-05-06T04:03:59.803Z,12.72
2018-05-06T04:04:59.863Z,12.68
2018-05-06T04:05:59.798Z,12.70
2018-05-06T04:06:59.804Z,12.71
2018-05-06T04:07:59.860Z,12.79
2018-05-06T04:08:59.996Z,12.79
2018-05-06T04:09:59.904Z,12.78
2018-05-06T04:10:59.850Z,12.82
2018-05-06T04:11:59.859Z,12.87
2018-05-06T04:12:59.890Z,12.79
2018-05-06T04:13:59.900Z,12.78
2018-05-06T04:14:59.835Z,12.89
2018-05-06T04:15:59.833Z,12.86
2018-05-06T04:16:59.840Z,12.85
2018-05-06T04:17:59.831Z,12.96
2018-05-06T04:18:59.859Z,12.85
2018-05-06T04:19:59.814Z,12.89
2018-05-06T04:20:59.821Z,12.95
2018-05-06T04:21:59.865Z,12.93
2018-05-06T04:22:59.891Z,12.96
2018-05-06T04:23:59.885Z,13.00
2018-05-06T04:24:59.844Z,12.90
2018-05-06T04:25:59.861Z,12.93
2018-05-06T04:26:59.893Z,12.96
2018-05-06T04:27:59.841Z,12.97
2018-05-06T04:28:59.874Z,12.93
2018-05-06T04:30:00.743Z,12.97
2018-05-06T04:30:59.902Z,13.03
2018-05-06T04:31:59.877Z,12.96
2018-05-06T04:32:59.867Z,13.07
2018-05-06T04:33:59.867Z,12.96
2018-05-06T04:34:59.885Z,12.97
2018-05-06T04:35:59.888Z,13.03
2018-05-06T04:36:59.894Z,13.04
2018-05-06T04:37:59.952Z,13.05
2018-05-06T04:38:59.893Z,13.03
2018-05-06T04:39:59.908Z,13.07
2018-05-06T04:40:59.939Z,13.05
2018-05-06T04:41:59.912Z,13.08
2018-05-06T04:43:00.010Z,13.19
2018-05-06T04:43:59.902Z,13.19
2018-05-06T04:44:59.924Z,13.10
2018-05-06T04:45:59.953Z,13.12
2018-05-06T04:46:59.952Z,13.20
2018-05-06T04:47:59.942Z,13.22
2018-05-06T04:48:59.870Z,13.14
2018-05-06T04:49:59.920Z,13.15
2018-05-06T04:50:59.924Z,13.19
2018-05-06T04:51:59.961Z,13.23
2018-05-06T04:52:59.918Z,13.25
2018-05-06T04:53:59.882Z,13.32
2018-05-06T04:54:59.918Z,13.32
2018-05-06T04:55:59.938Z,13.38
2018-05-06T04:56:59.904Z,13.29
2018-05-06T04:57:59.915Z,13.28
2018-05-06T04:58:59.891Z,13.32
2018-05-06T04:59:59.950Z,13.39
2018-05-06T05:00:59.895Z,13.39
2018-05-06T05:01:59.960Z,13.42
2018-05-06T05:02:59.960Z,13.26
2018-05-06T05:03:59.972Z,13.39
2018-05-06T05:04:59.937Z,13.46
2018-05-06T05:05:59.931Z,13.49
2018-05-06T05:06:59.924Z,13.51
2018-05-06T05:07:59.928Z,13.51
2018-05-06T05:08:59.909Z,13.49
2018-05-06T05:09:59.973Z,13.52
2018-05-06T05:11:00.007Z,13.66
2018-05-06T05:11:59.950Z,13.66
2018-05-06T05:12:59.944Z,13.81
2018-05-06T05:14:00.750Z,13.81
2018-05-06T05:14:59.988Z,13.85
2018-05-06T05:15:59.978Z,13.85
2018-05-06T05:16:59.996Z,13.96
2018-05-06T05:18:00.007Z,14.02
2018-05-06T05:18:59.950Z,14.06
2018-05-06T05:19:59.925Z,14.14
2018-05-06T05:20:59.931Z,13.95
2018-05-06T05:21:59.947Z,14.03
2018-05-06T05:22:59.949Z,14.02
2018-05-06T05:23:59.973Z,14.07
2018-05-06T05:25:00.007Z,14.00
2018-05-06T05:25:59.967Z,14.14
2018-05-06T05:27:00.009Z,14.32
2018-05-06T05:28:00.035Z,14.29
2018-05-06T05:28:59.967Z,14.27
2018-05-06T05:29:59.997Z,14.32
2018-05-06T05:30:59.977Z,14.80
2018-05-06T05:31:59.973Z,15.49
2018-05-06T05:32:59.990Z,16.50
2018-05-06T05:34:00.004Z,16.94
2018-05-06T05:34:59.999Z,17.28
2018-05-06T05:36:00.008Z,17.31
2018-05-06T05:37:00.010Z,17.18
2018-05-06T05:38:00.004Z,17.79
2018-05-06T05:39:00.012Z,18.02
2018-05-06T05:40:00.025Z,18.72
2018-05-06T05:41:00.023Z,18.45
2018-05-06T05:42:00.025Z,19.48
2018-05-06T05:43:00.136Z,18.25
2018-05-06T05:43:59.985Z,17.78
2018-05-06T05:45:00.009Z,17.48
2018-05-06T05:46:00.017Z,17.11
2018-05-06T05:47:00.023Z,17.06
2018-05-06T05:48:00.025Z,17.08
2018-05-06T05:49:00.048Z,17.95
2018-05-06T05:50:00.760Z,17.64
2018-05-06T05:51:00.907Z,17.19
2018-05-06T05:52:00.037Z,17.28
2018-05-06T05:53:00.110Z,17.63
2018-05-06T05:54:00.051Z,17.58
2018-05-06T05:55:00.090Z,18.00
2018-05-06T05:56:00.015Z,18.60
2018-05-06T05:57:00.072Z,19.74
2018-05-06T05:58:00.079Z,20.84
2018-05-06T05:59:00.064Z,21.69
2018-05-06T06:00:00.074Z,21.12
2018-05-06T06:01:00.079Z,19.69
2018-05-06T06:02:00.093Z,21.09
2018-05-06T06:03:00.078Z,21.37
2018-05-06T06:04:00.075Z,22.57
2018-05-06T06:05:00.098Z,22.77
2018-05-06T06:06:00.106Z,22.75
2018-05-06T06:07:00.139Z,21.94
2018-05-06T06:08:00.159Z,22.64
2018-05-06T06:09:00.128Z,22.92
2018-05-06T06:10:00.111Z,21.50
2018-05-06T06:11:00.148Z,21.96
2018-05-06T06:12:00.179Z,21.49
2018-05-06T06:13:00.136Z,20.70
2018-05-06T06:14:00.145Z,21.80
2018-05-06T06:15:00.170Z,21.98
2018-05-06T06:16:00.108Z,22.36
2018-05-06T06:17:00.168Z,21.96
2018-05-06T06:18:00.173Z,22.39
2018-05-06T06:19:00.235Z,22.98
2018-05-06T06:20:00.137Z,24.09
2018-05-06T06:21:00.177Z,23.07
2018-05-06T06:22:00.264Z,23.35
2018-05-06T06:23:00.239Z,23.90
2018-05-06T06:24:00.254Z,22.97
2018-05-06T06:25:00.225Z,22.28
2018-05-06T06:26:00.208Z,22.30
2018-05-06T06:27:00.181Z,22.12
2018-05-06T06:28:00.279Z,22.33
2018-05-06T06:29:00.209Z,22.15
2018-05-06T06:30:00.243Z,22.94
2018-05-06T06:31:00.253Z,22.49
2018-05-06T06:32:00.251Z,22.95
2018-05-06T06:33:00.284Z,22.79
2018-05-06T06:34:00.343Z,23.27
2018-05-06T06:35:00.298Z,23.33
2018-05-06T06:36:00.314Z,22.64
2018-05-06T06:37:00.369Z,21.98
2018-05-06T06:38:00.344Z,21.59
2018-05-06T06:39:00.374Z,22.52
2018-05-06T06:40:00.315Z,23.10
2018-05-06T06:41:00.343Z,23.76
2018-05-06T06:42:00.407Z,22.91
2018-05-06T06:43:00.343Z,22.06
2018-05-06T06:44:00.352Z,21.99
2018-05-06T06:45:00.316Z,23.04
2018-05-06T06:46:00.512Z,22.42
2018-05-06T06:47:00.377Z,22.06
2018-05-06T06:48:01.330Z,22.60
2018-05-06T06:49:00.653Z,23.10
2018-05-06T06:50:00.380Z,23.07
2018-05-06T06:51:00.439Z,23.53
2018-05-06T06:52:00.426Z,24.45
2018-05-06T06:53:00.422Z,24.21
2018-05-06T06:54:00.422Z,24.06
2018-05-06T06:55:00.430Z,23.66
2018-05-06T06:56:00.471Z,23.17
2018-05-06T06:57:00.424Z,23.40
2018-05-06T06:58:00.511Z,23.73
2018-05-06T06:59:00.473Z,24.05
2018-05-06T07:00:00.433Z,23.90
2018-05-06T07:01:00.520Z,23.07
2018-05-06T07:02:00.531Z,24.58
2018-05-06T07:03:00.530Z,25.21
2018-05-06T07:04:00.505Z,23.68
2018-05-06T07:05:00.627Z,23.80
2018-05-06T07:06:00.732Z,24.16
2018-05-06T07:07:00.578Z,24.78
2018-05-06T07:08:00.512Z,25.21
2018-05-06T07:09:00.587Z,25.00
2018-05-06T07:10:00.595Z,24.12
2018-05-06T07:11:00.864Z,24.30
2018-05-06T07:12:00.601Z,24.32
2018-05-06T07:13:00.629Z,24.83
2018-05-06T07:14:00.723Z,24.08
2018-05-06T07:15:00.605Z,23.73
2018-05-06T07:16:00.640Z,24.16
2018-05-06T07:17:00.709Z,24.84
2018-05-06T07:18:00.672Z,24.69
2018-05-06T07:19:00.687Z,23.46
2018-05-06T07:20:00.735Z,23.94
2018-05-06T07:21:00.697Z,23.51
2018-05-06T07:22:00.719Z,24.25
2018-05-06T07:23:00.799Z,24.68
2018-05-06T07:24:00.728Z,24.64
2018-05-06T07:25:00.808Z,24.16
2018-05-06T07:26:00.811Z,23.94
2018-05-06T07:27:00.750Z,24.84
2018-05-06T07:28:00.799Z,24.77
2018-05-06T07:29:01.315Z,24.62
2018-05-06T07:30:00.886Z,24.81
2018-05-06T07:31:00.826Z,24.08
2018-05-06T07:32:00.823Z,23.90
2018-05-06T07:33:00.888Z,24.93
2018-05-06T07:34:00.947Z,25.43
2018-05-06T07:35:00.815Z,24.46
2018-05-06T07:36:00.882Z,24.58
2018-05-06T07:37:00.914Z,25.36
2018-05-06T07:38:00.878Z,25.36
2018-05-06T07:39:01.023Z,25.47
2018-05-06T07:40:00.963Z,25.20
2018-05-06T07:41:01.050Z,25.54
2018-05-06T07:42:01.005Z,25.91
2018-05-06T07:43:01.021Z,24.60
2018-05-06T07:44:01.040Z,24.90
2018-05-06T07:45:01.903Z,24.25
2018-05-06T07:46:01.049Z,25.02
2018-05-06T07:47:01.026Z,23.73
2018-05-06T07:48:01.084Z,24.93
2018-05-06T07:49:01.112Z,25.50
2018-05-06T07:50:01.077Z,25.05
2018-05-06T07:51:01.090Z,25.15
2018-05-06T07:52:01.073Z,23.80
2018-05-06T07:53:01.097Z,23.70
2018-05-06T07:54:01.142Z,23.79
2018-05-06T07:55:01.134Z,23.48
2018-05-06T07:56:01.126Z,24.65
2018-05-06T07:57:01.163Z,24.62
2018-05-06T07:58:01.181Z,24.20
2018-05-06T07:59:01.160Z,24.50
2018-05-06T08:00:01.194Z,24.85
2018-05-06T08:01:01.260Z,25.47
2018-05-06T08:02:01.283Z,25.45
2018-05-06T08:03:01.288Z,25.28
2018-05-06T08:04:01.405Z,25.15
2018-05-06T08:05:01.265Z,25.14
2018-05-06T08:06:01.247Z,24.81
2018-05-06T08:07:01.351Z,25.24
2018-05-06T08:08:01.319Z,25.82
2018-05-06T08:09:01.376Z,24.87
2018-05-06T08:10:01.742Z,25.30
2018-05-06T08:11:01.427Z,25.60
2018-05-06T08:12:01.404Z,26.99
2018-05-06T08:13:01.464Z,26.87
2018-05-06T08:14:01.496Z,26.32
2018-05-06T08:15:01.468Z,26.35
2018-05-06T08:16:01.498Z,27.36
2018-05-06T08:17:01.491Z,26.63
2018-05-06T08:18:01.507Z,26.81
2018-05-06T08:19:01.514Z,26.63
2018-05-06T08:20:01.491Z,25.94
2018-05-06T08:21:02.351Z,27.07
2018-05-06T08:22:01.597Z,27.51
2018-05-06T08:23:01.588Z,27.84
2018-05-06T08:24:01.552Z,28.66
2018-05-06T08:25:01.625Z,28.92
2018-05-06T08:26:01.596Z,27.88
2018-05-06T08:27:01.610Z,27.37
2018-05-06T08:28:01.645Z,27.25
2018-05-06T08:29:01.705Z,26.36
2018-05-06T08:30:01.715Z,27.10
2018-05-06T08:31:01.813Z,28.17
2018-05-06T08:32:01.708Z,27.34
2018-05-06T08:33:01.785Z,26.67
2018-05-06T08:34:01.739Z,26.55
2018-05-06T08:35:01.834Z,26.63
2018-05-06T08:36:01.809Z,27.32
2018-05-06T08:37:01.768Z,27.99
2018-05-06T08:38:01.821Z,27.41
2018-05-06T08:39:01.805Z,26.39
2018-05-06T08:40:01.822Z,26.23
2018-05-06T08:41:01.853Z,26.52
2018-05-06T08:42:01.847Z,26.84
2018-05-06T08:43:02.086Z,26.26
2018-05-06T08:44:01.961Z,26.82
2018-05-06T08:45:01.957Z,27.46
2018-05-06T08:46:01.905Z,27.59
2018-05-06T08:47:01.993Z,27.93
2018-05-06T08:48:02.102Z,28.62
2018-05-06T08:49:02.134Z,27.24
2018-05-06T08:50:02.025Z,28.06
2018-05-06T08:51:02.420Z,27.70
2018-05-06T08:52:02.075Z,27.49
2018-05-06T08:53:02.025Z,27.78
2018-05-06T08:54:02.171Z,26.21
2018-05-06T08:55:02.186Z,27.07
2018-05-06T08:56:02.214Z,27.60
2018-05-06T08:57:02.872Z,27.47
2018-05-06T08:58:02.207Z,27.09
2018-05-06T08:59:02.335Z,26.97
2018-05-06T09:00:02.188Z,26.82
2018-05-06T09:01:02.199Z,27.09
2018-05-06T09:02:02.285Z,26.60
2018-05-06T09:03:03.004Z,27.47
2018-05-06T09:04:02.326Z,27.12
2018-05-06T09:05:02.298Z,26.85
2018-05-06T09:06:02.946Z,27.36
2018-05-06T09:07:02.309Z,27.46
2018-05-06T09:08:02.421Z,27.92
2018-05-06T09:09:02.386Z,27.04
2018-05-06T09:10:02.478Z,26.33
2018-05-06T09:11:02.390Z,26.48
2018-05-06T09:12:02.463Z,25.79
2018-05-06T09:13:02.664Z,25.52
2018-05-06T09:14:02.631Z,25.83
2018-05-06T09:15:03.242Z,26.84
2018-05-06T09:16:02.656Z,26.77
2018-05-06T09:17:02.967Z,27.18
2018-05-06T09:18:02.610Z,27.99
2018-05-06T09:19:04.310Z,27.28
2018-05-06T09:20:03.337Z,27.21
2018-05-06T09:21:03.571Z,27.39
2018-05-06T09:22:02.683Z,27.24
2018-05-06T09:23:04.629Z,27.22
2018-05-06T09:24:02.701Z,27.34
2018-05-06T09:25:04.567Z,27.77
2018-05-06T09:26:05.620Z,26.39
2018-05-06T09:27:03.652Z,26.07
2018-05-06T09:28:02.795Z,26.54
2018-05-06T09:29:03.009Z,26.57
2018-05-06T09:30:02.794Z,26.29
2018-05-06T09:31:02.818Z,26.58
2018-05-06T09:32:03.615Z,26.75
2018-05-06T09:33:02.984Z,25.73
2018-05-06T09:34:02.854Z,25.73
2018-05-06T09:35:03.057Z,25.67
2018-05-06T09:36:02.896Z,25.32
2018-05-06T09:37:02.984Z,26.55
2018-05-06T09:38:03.045Z,27.21
2018-05-06T09:39:02.981Z,27.57
2018-05-06T09:40:02.981Z,28.29
2018-05-06T09:41:03.041Z,28.34
2018-05-06T09:42:03.089Z,28.24
2018-05-06T09:43:03.062Z,28.21
2018-05-06T09:44:03.435Z,27.55
2018-05-06T09:45:04.279Z,26.92
2018-05-06T09:46:03.173Z,27.24
2018-05-06T09:47:03.237Z,27.72
2018-05-06T09:48:03.337Z,27.99
2018-05-06T09:49:04.759Z,28.22
2018-05-06T09:50:03.423Z,27.32
2018-05-06T09:51:03.266Z,28.02
2018-05-06T09:52:03.404Z,28.36
2018-05-06T09:53:03.281Z,27.94
2018-05-06T09:54:03.293Z,28.11
2018-05-06T09:55:03.315Z,27.39
2018-05-06T09:56:03.344Z,27.19
2018-05-06T09:57:03.329Z,27.67
2018-05-06T09:58:03.324Z,27.69
2018-05-06T09:59:03.485Z,28.78
2018-05-06T10:00:03.412Z,29.41
2018-05-06T10:01:06.175Z,29.64
2018-05-06T10:02:03.605Z,30.13
2018-05-06T10:03:03.461Z,30.02
2018-05-06T10:04:03.521Z,29.27
2018-05-06T10:05:03.566Z,27.70
2018-05-06T10:06:03.696Z,27.47
2018-05-06T10:07:03.598Z,28.39
2018-05-06T10:08:03.589Z,28.24
2018-05-06T10:09:04.965Z,28.59
2018-05-06T10:10:03.681Z,29.24
2018-05-06T10:11:04.604Z,28.76
2018-05-06T10:12:03.658Z,28.52
2018-05-06T10:13:03.939Z,29.36
2018-05-06T10:14:03.755Z,29.30
2018-05-06T10:15:04.617Z,28.02
2018-05-06T10:16:03.796Z,27.87
2018-05-06T10:17:03.922Z,26.85
2018-05-06T10:18:03.913Z,26.40
2018-05-06T10:19:04.572Z,26.85
2018-05-06T10:20:03.928Z,27.50
2018-05-06T10:21:03.872Z,28.40
2018-05-06T10:22:03.884Z,28.83
2018-05-06T10:23:04.582Z,27.87
2018-05-06T10:24:03.944Z,28.33
2018-05-06T10:25:04.594Z,27.62
2018-05-06T10:26:04.030Z,27.75
2018-05-06T10:27:04.525Z,26.63
2018-05-06T10:28:04.066Z,27.37
2018-05-06T10:29:04.621Z,27.99
2018-05-06T10:30:04.104Z,28.30
2018-05-06T10:31:05.931Z,29.18
2018-05-06T10:32:04.099Z,27.40
2018-05-06T10:33:05.078Z,27.19
2018-05-06T10:34:04.138Z,27.62
2018-05-06T10:35:04.143Z,26.76
2018-05-06T10:36:04.605Z,27.34
2018-05-06T10:37:04.311Z,27.75
2018-05-06T10:38:04.265Z,26.84
2018-05-06T10:39:05.134Z,27.50
2018-05-06T10:40:05.070Z,28.44
2018-05-06T10:41:05.122Z,29.02
2018-05-06T10:42:05.183Z,29.18
2018-05-06T10:43:05.272Z,29.19
2018-05-06T10:44:04.833Z,28.68
2018-05-06T10:45:04.396Z,28.58
2018-05-06T10:46:04.989Z,27.82
2018-05-06T10:47:05.234Z,27.54
2018-05-06T10:48:04.613Z,28.17
2018-05-06T10:49:04.568Z,27.14
2018-05-06T10:50:04.638Z,27.22
2018-05-06T10:51:05.154Z,27.10
2018-05-06T10:52:04.534Z,27.14
2018-05-06T10:53:04.578Z,27.21
2018-05-06T10:54:04.793Z,27.17
2018-05-06T10:55:04.573Z,26.45
2018-05-06T10:56:04.566Z,25.72
2018-05-06T10:57:04.686Z,25.32
2018-05-06T10:58:04.662Z,25.65
2018-05-06T10:59:04.665Z,25.87
2018-05-06T11:00:04.651Z,25.95
2018-05-06T11:01:04.650Z,26.09
2018-05-06T11:02:04.713Z,25.79
2018-05-06T11:03:04.732Z,25.20
2018-05-06T11:04:04.753Z,24.73
2018-05-06T11:05:04.743Z,24.69
2018-05-06T11:06:04.716Z,24.50
2018-05-06T11:07:04.749Z,25.00
2018-05-06T11:08:05.459Z,25.06
2018-05-06T11:09:04.807Z,25.08
2018-05-06T11:10:04.923Z,24.93
2018-05-06T11:11:04.829Z,25.24
2018-05-06T11:12:04.798Z,25.25
2018-05-06T11:13:04.815Z,25.18
2018-05-06T11:14:04.866Z,25.08
2018-05-06T11:15:04.896Z,25.28
2018-05-06T11:16:04.882Z,25.32
2018-05-06T11:17:04.879Z,25.32
2018-05-06T11:18:05.463Z,25.33
2018-05-06T11:19:04.978Z,25.46
2018-05-06T11:20:04.927Z,25.09
2018-05-06T11:21:04.922Z,25.23
2018-05-06T11:22:04.973Z,25.20
2018-05-06T11:23:04.943Z,25.13
2018-05-06T11:24:05.031Z,24.87
2018-05-06T11:25:04.980Z,24.73
2018-05-06T11:26:04.981Z,24.61
2018-05-06T11:27:04.968Z,24.88
2018-05-06T11:28:04.984Z,25.20
2018-05-06T11:29:06.608Z,25.30
2018-05-06T11:30:05.057Z,25.57
2018-05-06T11:31:05.012Z,25.42
2018-05-06T11:32:05.056Z,25.36
2018-05-06T11:33:05.026Z,25.39
2018-05-06T11:34:05.022Z,25.73
2018-05-06T11:35:05.057Z,25.85
2018-05-06T11:36:05.197Z,25.57
2018-05-06T11:37:05.075Z,25.21
2018-05-06T11:38:05.096Z,25.39
2018-05-06T11:39:05.081Z,25.50
2018-05-06T11:40:05.097Z,25.30
2018-05-06T11:41:05.145Z,24.99
2018-05-06T11:42:05.077Z,25.14
2018-05-06T11:43:05.115Z,25.21
2018-05-06T11:44:05.113Z,25.14
2018-05-06T11:45:05.183Z,25.08
2018-05-06T11:46:05.134Z,24.76
2018-05-06T11:47:05.149Z,24.99
2018-05-06T11:48:05.225Z,25.17
2018-05-06T11:49:05.173Z,25.51
2018-05-06T11:50:05.169Z,25.91
2018-05-06T11:51:05.224Z,25.77
2018-05-06T11:52:05.308Z,25.64
2018-05-06T11:53:05.218Z,25.70
2018-05-06T11:54:05.212Z,25.72
2018-05-06T11:55:05.243Z,25.47
2018-05-06T11:56:05.198Z,25.47
2018-05-06T11:57:05.228Z,25.47
2018-05-06T11:58:05.245Z,25.60
2018-05-06T11:59:05.335Z,25.24
2018-05-06T12:00:05.256Z,25.43
2018-05-06T12:01:05.231Z,25.46
2018-05-06T12:02:05.265Z,25.72
2018-05-06T12:03:05.277Z,25.42
2018-05-06T12:04:05.367Z,25.40
2018-05-06T12:05:05.356Z,25.40
2018-05-06T12:06:05.350Z,25.69
2018-05-06T12:07:05.303Z,25.76
2018-05-06T12:08:05.325Z,25.58
2018-05-06T12:09:05.327Z,25.60
2018-05-06T12:10:05.398Z,25.42
2018-05-06T12:11:05.312Z,25.21
2018-05-06T12:12:05.336Z,25.30
2018-05-06T12:13:05.384Z,25.50
2018-05-06T12:14:05.329Z,25.35
2018-05-06T12:15:05.571Z,25.35
2018-05-06T12:16:05.446Z,25.32
2018-05-06T12:17:05.395Z,25.13
2018-05-06T12:18:05.394Z,25.15
2018-05-06T12:19:05.389Z,25.14
2018-05-06T12:20:05.426Z,24.90
2018-05-06T12:21:05.424Z,25.09
2018-05-06T12:22:05.390Z,25.10
2018-05-06T12:23:05.411Z,24.96
2018-05-06T12:24:05.407Z,25.03
2018-05-06T12:25:05.475Z,24.80
2018-05-06T12:26:05.439Z,24.80
2018-05-06T12:27:05.413Z,24.83
2018-05-06T12:28:05.422Z,24.95
2018-05-06T12:29:05.440Z,25.17
2018-05-06T12:30:05.440Z,25.43
2018-05-06T12:31:05.456Z,25.67
2018-05-06T12:32:05.558Z,25.69
2018-05-06T12:33:05.497Z,25.70
2018-05-06T12:34:05.480Z,25.65
2018-05-06T12:35:05.483Z,25.46
2018-05-06T12:36:05.531Z,25.10
2018-05-06T12:37:05.508Z,24.62
2018-05-06T12:38:05.492Z,24.78
2018-05-06T12:39:05.535Z,24.95
2018-05-06T12:40:05.568Z,25.15
2018-05-06T12:41:05.557Z,25.39
2018-05-06T12:42:05.624Z,25.35
2018-05-06T12:43:05.533Z,25.27
2018-05-06T12:44:05.688Z,25.28
2018-05-06T12:45:05.548Z,24.83
2018-05-06T12:46:05.667Z,24.78
2018-05-06T12:47:05.570Z,24.98
2018-05-06T12:48:05.560Z,25.17
2018-05-06T12:49:05.582Z,25.25
2018-05-06T12:50:05.607Z,25.23
2018-05-06T12:51:05.608Z,25.21
2018-05-06T12:52:05.670Z,25.25